createdAt,value
2022-11-01T00:26:51.745Z,18.88
2022-11-01T00:29:18.766Z,16.13
2022-11-01T00:31:45.638Z,15.35
2022-11-01T00:34:12.402Z,17.63
2022-11-01T00:36:39.393Z,18.63
2022-11-01T00:39:07.490Z,18.05
2022-11-01T00:41:35.220Z,14.00
2022-11-01T00:44:02.046Z,13.77
2022-11-01T00:46:31.482Z,13.90
2022-11-01T00:48:58.276Z,12.40
2022-11-01T00:51:26.281Z,15.43
2022-11-01T00:53:53.094Z,12.48
2022-11-01T00:56:19.862Z,14.90
2022-11-01T00:58:46.646Z,7.80
2022-11-01T01:01:13.696Z,7.35
2022-11-01T01:03:40.700Z,10.75
2022-11-01T01:06:07.682Z,10.77
2022-11-01T01:08:34.551Z,10.20
2022-11-01T01:11:01.272Z,6.65
2022-11-01T01:13:28.091Z,13.30
2022-11-01T01:15:54.822Z,10.95
2022-11-01T01:18:21.958Z,9.45
2022-11-01T01:20:48.911Z,15.02
2022-11-01T01:23:15.670Z,9.75
2022-11-01T01:25:43.166Z,10.75
2022-11-01T01:28:10.117Z,7.03
2022-11-01T01:30:41.429Z,13.85
2022-11-01T01:33:09.607Z,9.25
2022-11-01T01:35:39.134Z,12.25
2022-11-01T01:38:07.314Z,12.35
2022-11-01T01:40:35.205Z,10.07
2022-11-01T01:43:02.362Z,13.63
2022-11-01T01:45:39.636Z,9.75
2022-11-01T01:48:27.501Z,9.73
2022-11-01T01:51:00.098Z,9.45
2022-11-01T01:53:42.211Z,11.30
2022-11-01T01:56:21.527Z,10.65
2022-11-01T01:59:02.965Z,8.07
2022-11-01T02:01:30.305Z,16.40
2022-11-01T02:03:57.692Z,10.95
2022-11-01T02:06:26.114Z,9.75
2022-11-01T02:08:56.881Z,11.23
2022-11-01T02:11:24.063Z,10.07
2022-11-01T02:13:51.845Z,12.00
2022-11-01T02:16:54.690Z,14.55
2022-11-01T02:20:07.709Z,10.57
2022-11-01T02:23:18.702Z,10.90
2022-11-01T02:26:02.133Z,12.73
2022-11-01T02:28:44.367Z,13.07
2022-11-01T02:31:47.771Z,12.07
2022-11-01T02:34:24.165Z,13.38
2022-11-01T02:37:12.796Z,11.18
2022-11-01T02:39:47.553Z,14.73
2022-11-01T02:42:37.096Z,26.83
2022-11-01T02:45:43.013Z,7.63
2022-11-01T02:48:09.975Z,14.98
2022-11-01T02:50:42.762Z,13.63
2022-11-01T02:53:10.441Z,11.20
2022-11-01T02:55:37.270Z,9.90
2022-11-01T02:58:25.860Z,7.90
2022-11-01T03:00:52.798Z,10.60
2022-11-01T03:03:34.428Z,11.80
2022-11-01T03:06:01.234Z,8.85
2022-11-01T03:08:35.788Z,10.35
2022-11-01T03:11:21.787Z,7.22
2022-11-01T03:14:17.910Z,8.80
2022-11-01T03:17:28.222Z,5.38
2022-11-01T03:20:07.530Z,6.35
2022-11-01T03:22:53.875Z,6.40
2022-11-01T03:25:40.773Z,5.57
2022-11-01T03:28:09.320Z,3.08
2022-11-01T03:30:37.790Z,4.15
2022-11-01T03:33:05.592Z,2.83
2022-11-01T03:35:37.192Z,2.67
2022-11-01T03:38:21.336Z,2.38
2022-11-01T03:40:55.482Z,3.05
2022-11-01T03:43:24.522Z,2.97
2022-11-01T03:45:51.615Z,1.75
2022-11-01T03:48:18.437Z,6.53
2022-11-01T03:50:56.481Z,1.33
2022-11-01T03:53:24.638Z,1.80
2022-11-01T03:55:51.510Z,2.08
2022-11-01T03:58:18.577Z,2.67
2022-11-01T04:00:47.254Z,1.08
2022-11-01T04:03:14.375Z,2.72
2022-11-01T04:05:42.797Z,1.45
2022-11-01T04:08:11.650Z,5.40
2022-11-01T04:10:38.782Z,2.58
2022-11-01T04:13:06.027Z,6.43
2022-11-01T04:15:51.651Z,4.22
2022-11-01T04:21:13.654Z,4.20
2022-11-01T04:23:40.629Z,5.82
2022-11-01T04:26:11.735Z,3.17
2022-11-01T04:28:38.627Z,7.35
2022-11-01T04:31:06.444Z,3.70
2022-11-01T04:33:33.286Z,4.57
2022-11-01T04:36:06.552Z,6.53
2022-11-01T04:38:33.324Z,7.28
2022-11-01T04:41:00.159Z,8.13
2022-11-01T04:43:27.137Z,5.82
2022-11-01T04:45:56.212Z,4.57
2022-11-01T04:48:23.851Z,6.47
2022-11-01T04:50:50.892Z,5.68
2022-11-01T04:53:17.821Z,6.30
2022-11-01T04:55:44.964Z,7.57
2022-11-01T04:58:12.098Z,8.30
2022-11-01T05:00:39.524Z,8.85
2022-11-01T05:03:08.399Z,4.65
2022-11-01T05:05:35.943Z,4.75
2022-11-01T05:08:09.972Z,8.32
2022-11-01T05:10:40.841Z,5.03
2022-11-01T05:13:08.914Z,6.28
2022-11-01T05:15:40.068Z,7.15
2022-11-01T05:18:14.814Z,7.00
2022-11-01T05:20:41.566Z,4.95
2022-11-01T05:23:09.912Z,8.93
2022-11-01T05:25:38.271Z,8.10
2022-11-01T05:28:13.075Z,8.73
2022-11-01T05:30:40.823Z,10.73
2022-11-01T05:33:08.670Z,11.07
2022-11-01T05:35:36.482Z,9.13
2022-11-01T05:38:05.378Z,13.15
2022-11-01T05:40:33.290Z,9.48
2022-11-01T05:43:00.481Z,10.55
2022-11-01T05:45:27.829Z,9.82
2022-11-01T05:47:54.625Z,8.38
2022-11-01T05:50:21.429Z,12.60
2022-11-01T05:52:50.095Z,9.60
2022-11-01T05:55:17.241Z,12.23
2022-11-01T05:57:44.113Z,10.50
2022-11-01T06:00:12.169Z,9.80
2022-11-01T06:02:39.118Z,13.48
2022-11-01T06:05:06.330Z,14.90
2022-11-01T06:07:37.622Z,11.82
2022-11-01T06:10:05.881Z,15.60
2022-11-01T06:12:33.035Z,14.02
2022-11-01T06:14:59.840Z,14.30
2022-11-01T06:17:26.671Z,12.23
2022-11-01T06:19:53.513Z,14.13
2022-11-01T06:22:20.349Z,12.02
2022-11-01T06:24:47.115Z,15.43
2022-11-01T06:27:13.881Z,14.30
2022-11-01T06:29:40.695Z,23.70
2022-11-01T06:32:07.610Z,12.20
2022-11-01T06:34:34.527Z,20.92
2022-11-01T06:37:01.514Z,14.80
2022-11-01T06:39:29.046Z,10.00
2022-11-01T06:41:55.822Z,16.83
2022-11-01T06:44:23.018Z,19.20
2022-11-01T06:46:50.218Z,15.27
2022-11-01T06:49:19.093Z,20.52
2022-11-01T06:51:47.335Z,12.60
2022-11-01T06:54:14.578Z,18.08
2022-11-01T06:56:41.339Z,23.83
2022-11-01T06:59:08.809Z,16.45
2022-11-01T07:01:36.027Z,19.98
2022-11-01T07:04:02.959Z,21.77
2022-11-01T07:06:31.164Z,19.05
2022-11-01T07:09:01.641Z,15.90
2022-11-01T07:11:31.495Z,19.88
2022-11-01T07:13:59.607Z,15.73
2022-11-01T07:16:27.204Z,21.85
2022-11-01T07:18:54.034Z,13.77
2022-11-01T07:21:21.708Z,22.10
2022-11-01T07:23:48.940Z,21.67
2022-11-01T07:26:15.829Z,14.75
2022-11-01T07:28:42.593Z,22.25
2022-11-01T07:31:09.458Z,17.48
2022-11-01T07:33:36.584Z,21.20
2022-11-01T07:36:04.736Z,25.33
2022-11-01T07:38:31.884Z,24.67
2022-11-01T07:40:58.906Z,19.20
2022-11-01T07:43:25.705Z,21.20
2022-11-01T07:45:52.597Z,19.90
2022-11-01T07:48:19.946Z,18.77
2022-11-01T07:50:47.044Z,15.95
2022-11-01T07:53:19.371Z,29.13
2022-11-01T07:55:47.095Z,18.95
2022-11-01T07:58:15.777Z,17.15
2022-11-01T08:00:44.228Z,24.00
2022-11-01T08:03:17.252Z,16.95
2022-11-01T08:05:45.784Z,18.70
2022-11-01T08:08:14.690Z,19.67
2022-11-01T08:10:45.393Z,21.30
2022-11-01T08:13:18.413Z,15.15
2022-11-01T08:15:46.220Z,15.23
2022-11-01T08:18:13.487Z,22.33
2022-11-01T08:20:41.290Z,20.35
2022-11-01T08:23:09.313Z,18.33
2022-11-01T08:25:37.001Z,15.50
2022-11-01T08:28:17.106Z,19.35
2022-11-01T08:30:46.010Z,16.95
2022-11-01T08:33:12.921Z,16.33
2022-11-01T08:35:40.345Z,22.52
2022-11-01T08:38:09.705Z,17.42
2022-11-01T08:40:36.515Z,16.15
2022-11-01T08:43:03.602Z,23.23
2022-11-01T08:45:30.707Z,20.55
2022-11-01T08:48:03.809Z,17.42
2022-11-01T08:50:34.023Z,17.73
2022-11-01T08:53:09.461Z,15.40
2022-11-01T08:55:38.195Z,20.13
2022-11-01T08:58:06.910Z,15.77
2022-11-01T09:00:35.300Z,14.57
2022-11-01T09:03:02.183Z,15.60
2022-11-01T09:05:31.578Z,17.88
2022-11-01T09:08:02.067Z,14.27
2022-11-01T09:10:31.165Z,16.33
2022-11-01T09:13:02.268Z,16.50
2022-11-01T09:15:29.770Z,16.50
2022-11-01T09:17:56.694Z,16.48
2022-11-01T09:20:24.275Z,20.05
2022-11-01T09:22:52.660Z,17.33
2022-11-01T09:25:19.695Z,15.25
2022-11-01T09:27:46.482Z,13.98
2022-11-01T09:30:13.965Z,19.08
2022-11-01T09:32:40.740Z,21.65
2022-11-01T09:35:09.323Z,16.45
2022-11-01T09:37:36.197Z,18.63
2022-11-01T09:40:03.793Z,15.23
2022-11-01T09:42:36.104Z,13.52
2022-11-01T09:45:13.157Z,20.58
2022-11-01T09:47:41.700Z,13.63
2022-11-01T09:50:24.320Z,15.35
2022-11-01T09:52:53.514Z,20.38
2022-11-01T09:55:37.423Z,16.27
2022-11-01T09:58:34.510Z,19.05
2022-11-01T10:01:27.454Z,16.83
2022-11-01T10:04:20.208Z,14.48
2022-11-01T10:07:09.983Z,14.82
2022-11-01T10:10:18.653Z,16.27
2022-11-01T10:13:00.364Z,19.00
2022-11-01T10:15:52.722Z,16.70
2022-11-01T10:18:31.086Z,17.17
2022-11-01T10:21:21.621Z,13.88
2022-11-01T10:23:53.177Z,15.82
2022-11-01T10:26:30.264Z,19.05
2022-11-01T10:29:07.399Z,18.38
2022-11-01T10:31:43.130Z,16.42
2022-11-01T10:34:31.979Z,13.48
2022-11-01T10:37:39.009Z,16.40
2022-11-01T10:40:28.341Z,18.55
2022-11-01T10:42:55.462Z,16.40
2022-11-01T10:45:23.362Z,16.23
2022-11-01T10:47:57.083Z,15.20
2022-11-01T10:50:30.565Z,14.00
2022-11-01T10:53:03.465Z,14.90
2022-11-01T10:55:45.661Z,15.77
2022-11-01T10:58:41.960Z,14.60
2022-11-01T11:01:16.049Z,15.25
2022-11-01T11:03:46.210Z,12.70
2022-11-01T11:06:17.579Z,16.33
2022-11-01T11:08:51.754Z,17.63
2022-11-01T11:11:31.559Z,14.90
2022-11-01T11:14:00.491Z,16.48
2022-11-01T11:16:33.773Z,15.20
2022-11-01T11:19:26.992Z,19.77
2022-11-01T11:21:54.458Z,19.70
2022-11-01T11:24:34.899Z,16.08
2022-11-01T11:27:04.114Z,15.50
2022-11-01T11:29:49.461Z,15.43
2022-11-01T11:35:18.386Z,16.70
2022-11-01T11:38:07.293Z,16.95
2022-11-01T11:40:43.047Z,14.73
2022-11-01T11:43:30.438Z,15.98
2022-11-01T11:46:21.750Z,19.60
2022-11-01T11:49:07.432Z,16.70
2022-11-01T11:51:38.471Z,16.75
2022-11-01T11:54:25.487Z,14.63
2022-11-01T11:57:11.757Z,13.45
2022-11-01T11:59:40.632Z,15.95
2022-11-01T12:02:27.683Z,13.85
2022-11-01T12:05:02.113Z,13.93
2022-11-01T12:07:44.847Z,15.43
2022-11-01T12:10:34.211Z,16.05
2022-11-01T12:13:03.453Z,12.60
2022-11-01T12:15:41.265Z,14.95
2022-11-01T12:18:19.370Z,13.95
2022-11-01T12:20:52.013Z,16.08
2022-11-01T12:23:40.682Z,10.95
2022-11-01T12:26:14.057Z,12.50
2022-11-01T12:28:51.313Z,13.63
2022-11-01T12:31:20.800Z,13.98
2022-11-01T12:34:03.526Z,9.10
2022-11-01T12:36:46.529Z,11.80
2022-11-01T12:39:37.983Z,8.93
2022-11-01T12:42:05.362Z,14.43
2022-11-01T12:44:40.560Z,8.32
2022-11-01T12:47:45.814Z,12.45
2022-11-01T12:50:29.085Z,10.15
2022-11-01T12:53:16.080Z,11.45
2022-11-01T12:55:43.739Z,10.63
2022-11-01T12:58:16.364Z,7.72
2022-11-01T13:01:23.146Z,11.40
2022-11-01T13:04:30.356Z,12.93
2022-11-01T13:07:06.729Z,11.23
2022-11-01T13:09:57.809Z,15.10
2022-11-01T13:13:08.103Z,11.60
2022-11-01T13:15:54.867Z,8.30
2022-11-01T13:18:42.070Z,11.00
2022-11-01T13:21:37.182Z,12.90
2022-11-01T13:24:50.519Z,13.52
2022-11-01T13:27:33.029Z,7.57
2022-11-01T13:30:13.601Z,9.02
2022-11-01T13:32:51.500Z,9.27
2022-11-01T13:35:48.606Z,8.98
2022-11-01T13:38:42.290Z,11.90
2022-11-01T13:41:37.496Z,7.43
2022-11-01T13:44:18.355Z,9.45
2022-11-01T13:46:57.495Z,6.93
2022-11-01T13:50:01.871Z,10.02
2022-11-01T13:52:33.995Z,7.50
2022-11-01T13:55:14.210Z,7.65
2022-11-01T13:57:45.003Z,8.90
2022-11-01T14:00:41.108Z,9.32
2022-11-01T14:03:30.960Z,7.95
2022-11-01T14:09:27.955Z,8.77
2022-11-01T14:11:58.786Z,9.98
2022-11-01T14:14:31.597Z,5.28
2022-11-01T14:17:19.620Z,10.00
2022-11-01T14:20:15.369Z,8.45
2022-11-01T14:22:45.021Z,10.75
2022-11-01T14:25:14.127Z,8.00
2022-11-01T14:27:50.344Z,12.27
2022-11-01T14:30:25.158Z,5.45
2022-11-01T14:33:01.153Z,5.68
2022-11-01T14:35:38.013Z,7.40
2022-11-01T14:38:15.716Z,5.50
2022-11-01T14:40:51.565Z,8.30
2022-11-01T14:43:25.904Z,6.00
2022-11-01T14:46:04.275Z,4.88
2022-11-01T14:48:46.535Z,4.07
2022-11-01T14:51:37.404Z,6.53
2022-11-01T14:54:23.663Z,4.13
2022-11-01T14:56:54.279Z,3.08
2022-11-01T14:59:27.650Z,3.13
2022-11-01T15:02:02.781Z,2.70
2022-11-01T15:04:39.229Z,4.03
2022-11-01T15:07:19.390Z,2.40
2022-11-01T15:10:07.158Z,3.38
2022-11-01T15:12:47.457Z,2.03
2022-11-01T15:15:24.066Z,2.63
2022-11-01T15:17:58.046Z,2.30
2022-11-01T15:20:36.089Z,4.45
2022-11-01T15:23:10.647Z,2.03
2022-11-01T15:25:40.819Z,2.97
2022-11-01T15:28:07.742Z,4.43
2022-11-01T15:30:34.979Z,3.63
2022-11-01T15:33:32.747Z,3.17
2022-11-01T15:36:23.391Z,3.67
2022-11-01T15:38:58.983Z,7.03
2022-11-01T15:41:30.226Z,3.78
2022-11-01T15:44:01.122Z,3.83
2022-11-01T15:46:33.623Z,3.28
2022-11-01T15:49:09.025Z,4.10
2022-11-01T15:51:42.190Z,3.80
2022-11-01T15:54:48.284Z,5.68
2022-11-01T15:57:26.432Z,3.13
2022-11-01T16:00:08.113Z,3.33
2022-11-01T16:02:58.594Z,4.95
2022-11-01T16:05:34.419Z,4.05
2022-11-01T16:08:01.473Z,4.38
2022-11-01T16:10:30.466Z,5.18
2022-11-01T16:12:59.852Z,4.47
2022-11-01T16:15:31.641Z,4.15
2022-11-01T16:18:00.302Z,6.40
2022-11-01T16:20:38.252Z,6.22
2022-11-01T16:23:07.762Z,9.35
2022-11-01T16:25:37.778Z,6.05
2022-11-01T16:28:10.512Z,7.82
2022-11-01T16:30:54.992Z,4.85
2022-11-01T16:33:35.829Z,7.03
2022-11-01T16:36:26.825Z,4.22
2022-11-01T16:38:54.664Z,10.45
2022-11-01T16:41:24.364Z,8.55
2022-11-01T16:43:58.198Z,8.05
2022-11-01T16:46:29.405Z,5.68
2022-11-01T16:48:58.616Z,8.77
2022-11-01T16:51:30.594Z,8.57
2022-11-01T16:54:03.190Z,7.07
2022-11-01T16:56:37.072Z,7.20
2022-11-01T16:59:35.801Z,7.18
2022-11-01T17:02:16.693Z,7.38
2022-11-01T17:04:46.416Z,8.40
2022-11-01T17:07:13.403Z,7.57
2022-11-01T17:09:40.198Z,5.45
2022-11-01T17:12:08.270Z,7.32
2022-11-01T17:14:37.657Z,5.85
2022-11-01T17:17:09.950Z,5.25
2022-11-01T17:19:41.481Z,5.32
2022-11-01T17:22:16.443Z,3.58
2022-11-01T17:27:10.277Z,8.05
2022-11-01T17:29:37.239Z,10.63
2022-11-01T17:32:09.027Z,7.68
2022-11-01T17:34:37.180Z,8.00
2022-11-01T17:37:04.659Z,8.02
2022-11-01T17:39:32.205Z,9.98
2022-11-01T17:41:59.498Z,9.48
2022-11-01T17:44:26.329Z,7.10
2022-11-01T17:46:53.338Z,7.70
2022-11-01T17:49:23.732Z,7.28
2022-11-01T17:51:54.729Z,9.27
2022-11-01T17:54:23.223Z,6.25
2022-11-01T17:56:51.434Z,7.65
2022-11-01T17:59:18.782Z,8.30
2022-11-01T18:01:45.683Z,11.32
2022-11-01T18:04:12.538Z,8.05
2022-11-01T18:06:40.887Z,7.03
2022-11-01T18:09:25.593Z,6.88
2022-11-01T18:12:07.711Z,5.22
2022-11-01T18:14:57.218Z,9.23
2022-11-01T18:17:46.656Z,8.40
2022-11-01T18:20:46.304Z,10.43
2022-11-01T18:23:18.510Z,5.75
2022-11-01T18:25:50.556Z,10.02
2022-11-01T18:28:28.024Z,9.63
2022-11-01T18:31:41.449Z,5.13
2022-11-01T18:34:25.344Z,10.02
2022-11-01T18:37:09.989Z,7.88
2022-11-01T18:39:42.618Z,11.43
2022-11-01T18:42:10.742Z,6.93
2022-11-01T18:44:40.530Z,12.10
2022-11-01T18:47:16.819Z,13.00
2022-11-01T18:49:43.729Z,9.70
2022-11-01T18:52:15.344Z,14.60
2022-11-01T18:54:56.531Z,9.32
2022-11-01T18:57:24.905Z,10.80
2022-11-01T18:59:53.611Z,9.15
2022-11-01T19:02:28.217Z,10.25
2022-11-01T19:05:18.279Z,9.75
2022-11-01T19:08:10.068Z,8.23
2022-11-01T19:10:38.580Z,9.05
2022-11-01T19:13:13.075Z,10.52
2022-11-01T19:15:40.023Z,9.25
2022-11-01T19:18:20.530Z,5.80
2022-11-01T19:20:53.395Z,5.07
2022-11-01T19:23:41.080Z,7.78
2022-11-01T19:26:26.219Z,4.68
2022-11-01T19:28:53.388Z,5.43
2022-11-01T19:31:39.057Z,4.65
2022-11-01T19:34:16.547Z,3.63
2022-11-01T19:36:44.614Z,3.88
2022-11-01T19:39:23.697Z,6.25
2022-11-01T19:42:00.222Z,7.10
2022-11-01T19:44:28.996Z,4.85
2022-11-01T19:47:32.485Z,4.45
2022-11-01T19:49:59.363Z,3.50
2022-11-01T19:52:35.779Z,4.80
2022-11-01T19:55:21.389Z,4.43
2022-11-01T19:57:48.200Z,5.75
2022-11-01T20:00:19.282Z,4.32
2022-11-01T20:02:48.336Z,6.25
2022-11-01T20:05:33.195Z,6.60
2022-11-01T20:08:19.913Z,8.88
2022-11-01T20:10:46.904Z,7.03
2022-11-01T20:13:14.070Z,9.68
2022-11-01T20:15:40.847Z,8.02
2022-11-01T20:18:08.118Z,6.03
2022-11-01T20:20:35.433Z,4.57
2022-11-01T20:23:24.756Z,7.18
2022-11-01T20:25:48.920Z,6.28
2022-11-01T20:28:16.055Z,6.60
2022-11-01T20:30:42.786Z,6.47
2022-11-01T20:33:09.666Z,10.35
2022-11-01T20:35:36.729Z,4.43
2022-11-01T20:38:03.539Z,8.80
2022-11-01T20:40:30.303Z,7.70
2022-11-01T20:42:57.205Z,8.73
2022-11-01T20:45:23.984Z,5.43
2022-11-01T20:47:51.485Z,9.80
2022-11-01T20:50:19.204Z,6.35
2022-11-01T20:52:46.062Z,6.18
2022-11-01T20:55:13.483Z,8.95
2022-11-01T20:57:40.328Z,7.88
2022-11-01T21:00:18.949Z,3.03
2022-11-01T21:02:47.334Z,8.30
2022-11-01T21:05:25.318Z,6.28
2022-11-01T21:08:00.113Z,6.88
2022-11-01T21:10:36.833Z,6.95
2022-11-01T21:13:21.695Z,4.43
2022-11-01T21:15:49.338Z,4.15
2022-11-01T21:18:16.021Z,5.18
2022-11-01T21:20:46.970Z,7.93
2022-11-01T21:23:34.814Z,4.88
2022-11-01T21:26:17.718Z,5.30
2022-11-01T21:28:53.493Z,7.60
2022-11-01T21:31:34.143Z,4.85
2022-11-01T21:34:10.312Z,5.07
2022-11-01T21:36:53.605Z,7.03
2022-11-01T21:39:27.316Z,9.20
2022-11-01T21:42:01.760Z,5.32
2022-11-01T21:44:45.581Z,4.90
2022-11-01T21:47:43.175Z,3.45
2022-11-01T21:50:12.353Z,5.13
2022-11-01T21:52:39.101Z,6.22
2022-11-01T21:55:06.321Z,8.30
2022-11-01T21:57:33.058Z,9.88
2022-11-01T21:59:59.814Z,5.70
2022-11-01T22:02:26.682Z,4.80
2022-11-01T22:04:55.409Z,7.55
2022-11-01T22:07:22.423Z,10.95
2022-11-01T22:09:49.180Z,6.30
2022-11-01T22:12:15.955Z,6.60
2022-11-01T22:14:42.748Z,6.53
2022-11-01T22:17:09.563Z,10.68
2022-11-01T22:19:36.381Z,6.00
2022-11-01T22:22:03.145Z,6.07
2022-11-01T22:24:30.189Z,9.07
2022-11-01T22:26:57.144Z,9.07
2022-11-01T22:29:23.978Z,6.53
2022-11-01T22:31:50.808Z,5.50
2022-11-01T22:34:17.577Z,6.70
2022-11-01T22:36:44.301Z,10.63
2022-11-01T22:39:30.206Z,9.60
2022-11-01T22:41:57.015Z,7.85
2022-11-01T22:44:30.522Z,13.30
2022-11-01T22:47:00.546Z,9.23
2022-11-01T22:49:34.905Z,8.55
2022-11-01T22:52:17.215Z,9.73
2022-11-01T22:54:48.171Z,5.93
2022-11-01T22:57:24.471Z,8.15
2022-11-01T22:59:53.235Z,7.05
2022-11-01T23:02:39.250Z,11.35
2022-11-01T23:05:06.085Z,5.43
2022-11-01T23:07:57.798Z,10.00
2022-11-01T23:10:34.613Z,14.40
2022-11-01T23:13:21.780Z,7.05
2022-11-01T23:15:48.658Z,7.20
2022-11-01T23:18:27.847Z,7.45
2022-11-01T23:21:06.853Z,7.13
2022-11-01T23:23:41.031Z,6.03
2022-11-01T23:26:08.260Z,7.00
2022-11-01T23:28:37.317Z,8.68
2022-11-01T23:31:05.548Z,12.75
2022-11-01T23:33:40.758Z,5.53
2022-11-01T23:36:37.593Z,12.45
2022-11-01T23:39:13.823Z,6.57
2022-11-01T23:41:56.590Z,9.23
2022-11-01T23:44:37.732Z,7.35
2022-11-01T23:47:35.625Z,6.93
2022-11-01T23:50:21.267Z,6.15
2022-11-01T23:53:00.549Z,4.75
2022-11-01T23:55:32.582Z,7.47
2022-11-01T23:58:03.573Z,11.40
